sensor_id;sensor_type;location;lat;lon;timestamp;P1;durP1;ratioP1;P2;durP2;ratioP2
12228;SDS011;6177;52.402;9.800;2022-10-26T00:01:42;10.57;;;9.50;;
12228;SDS011;6177;52.402;9.800;2022-10-26T00:04:28;9.53;;;8.63;;
12228;SDS011;6177;52.402;9.800;2022-10-26T00:07:13;10.83;;;9.77;;
12228;SDS011;6177;52.402;9.800;2022-10-26T00:09:58;13.23;;;9.93;;
12228;SDS011;6177;52.402;9.800;2022-10-26T00:12:43;11.03;;;9.20;;
12228;SDS011;6177;52.402;9.800;2022-10-26T00:15:31;12.73;;;9.90;;
12228;SDS011;6177;52.402;9.800;2022-10-26T00:18:15;13.17;;;11.80;;
12228;SDS011;6177;52.402;9.800;2022-10-26T00:21:04;17.63;;;10.93;;
12228;SDS011;6177;52.402;9.800;2022-10-26T00:23:50;13.20;;;11.90;;
12228;SDS011;6177;52.402;9.800;2022-10-26T00:26:35;11.73;;;10.53;;
12228;SDS011;6177;52.402;9.800;2022-10-26T00:29:20;13.10;;;11.17;;
12228;SDS011;6177;52.402;9.800;2022-10-26T00:32:05;12.90;;;11.40;;
12228;SDS011;6177;52.402;9.800;2022-10-26T00:34:51;13.40;;;11.23;;
12228;SDS011;6177;52.402;9.800;2022-10-26T00:37:36;15.13;;;11.50;;
12228;SDS011;6177;52.402;9.800;2022-10-26T00:40:26;14.17;;;12.77;;
12228;SDS011;6177;52.402;9.800;2022-10-26T00:46:07;15.10;;;12.17;;
12228;SDS011;6177;52.402;9.800;2022-10-26T00:48:55;13.50;;;12.10;;
12228;SDS011;6177;52.402;9.800;2022-10-26T00:51:45;15.53;;;13.07;;
12228;SDS011;6177;52.402;9.800;2022-10-26T00:54:35;15.17;;;13.40;;
12228;SDS011;6177;52.402;9.800;2022-10-26T00:57:20;16.17;;;12.13;;
12228;SDS011;6177;52.402;9.800;2022-10-26T01:00:06;15.70;;;12.63;;
12228;SDS011;6177;52.402;9.800;2022-10-26T01:02:51;14.57;;;13.03;;
12228;SDS011;6177;52.402;9.800;2022-10-26T01:05:39;13.23;;;11.93;;
12228;SDS011;6177;52.402;9.800;2022-10-26T01:08:31;15.07;;;11.83;;
12228;SDS011;6177;52.402;9.800;2022-10-26T01:11:27;12.77;;;11.13;;
12228;SDS011;6177;52.402;9.800;2022-10-26T01:14:15;14.13;;;11.60;;
12228;SDS011;6177;52.402;9.800;2022-10-26T01:26:41;18.97;;;13.20;;
12228;SDS011;6177;52.402;9.800;2022-10-26T01:32:49;15.13;;;11.87;;
12228;SDS011;6177;52.402;9.800;2022-10-26T01:38:55;13.90;;;12.40;;
12228;SDS011;6177;52.402;9.800;2022-10-26T01:41:59;14.63;;;13.03;;
12228;SDS011;6177;52.402;9.800;2022-10-26T01:44:48;14.53;;;12.50;;
12228;SDS011;6177;52.402;9.800;2022-10-26T01:47:39;14.17;;;12.30;;
12228;SDS011;6177;52.402;9.800;2022-10-26T01:50:24;13.60;;;12.30;;
12228;SDS011;6177;52.402;9.800;2022-10-26T01:53:11;16.10;;;13.50;;
12228;SDS011;6177;52.402;9.800;2022-10-26T01:56:00;15.17;;;12.00;;
12228;SDS011;6177;52.402;9.800;2022-10-26T01:58:50;14.43;;;12.83;;
12228;SDS011;6177;52.402;9.800;2022-10-26T02:14:34;16.33;;;11.73;;
12228;SDS011;6177;52.402;9.800;2022-10-26T02:20:43;12.80;;;10.30;;
12228;SDS011;6177;52.402;9.800;2022-10-26T02:23:34;11.97;;;10.67;;
12228;SDS011;6177;52.402;9.800;2022-10-26T02:26:20;12.20;;;10.93;;
12228;SDS011;6177;52.402;9.800;2022-10-26T02:29:11;11.77;;;10.00;;
12228;SDS011;6177;52.402;9.800;2022-10-26T02:31:59;14.67;;;11.17;;
12228;SDS011;6177;52.402;9.800;2022-10-26T02:34:49;11.83;;;10.50;;
12228;SDS011;6177;52.402;9.800;2022-10-26T02:37:36;11.27;;;10.20;;
12228;SDS011;6177;52.402;9.800;2022-10-26T02:40:25;11.13;;;10.03;;
12228;SDS011;6177;52.402;9.800;2022-10-26T02:43:12;12.40;;;10.50;;
12228;SDS011;6177;52.402;9.800;2022-10-26T02:46:01;15.90;;;10.93;;
12228;SDS011;6177;52.402;9.800;2022-10-26T02:48:55;16.13;;;10.93;;
12228;SDS011;6177;52.402;9.800;2022-10-26T02:51:51;14.07;;;11.40;;
12228;SDS011;6177;52.402;9.800;2022-10-26T02:54:48;12.97;;;10.70;;
12228;SDS011;6177;52.402;9.800;2022-10-26T02:57:47;12.33;;;10.90;;
12228;SDS011;6177;52.402;9.800;2022-10-26T03:00:37;10.60;;;9.60;;
12228;SDS011;6177;52.402;9.800;2022-10-26T03:03:24;11.40;;;9.70;;
12228;SDS011;6177;52.402;9.800;2022-10-26T03:06:09;13.67;;;11.03;;
12228;SDS011;6177;52.402;9.800;2022-10-26T03:08:55;12.53;;;10.07;;
12228;SDS011;6177;52.402;9.800;2022-10-26T03:11:39;11.00;;;9.97;;
12228;SDS011;6177;52.402;9.800;2022-10-26T03:14:24;10.40;;;9.50;;
12228;SDS011;6177;52.402;9.800;2022-10-26T03:17:09;10.00;;;8.97;;
12228;SDS011;6177;52.402;9.800;2022-10-26T03:19:53;18.03;;;10.80;;
12228;SDS011;6177;52.402;9.800;2022-10-26T03:22:39;12.70;;;10.17;;
12228;SDS011;6177;52.402;9.800;2022-10-26T03:25:24;11.17;;;9.97;;
12228;SDS011;6177;52.402;9.800;2022-10-26T03:28:10;12.13;;;10.17;;
12228;SDS011;6177;52.402;9.800;2022-10-26T03:30:55;15.33;;;9.77;;
12228;SDS011;6177;52.402;9.800;2022-10-26T03:33:40;10.57;;;9.40;;
12228;SDS011;6177;52.402;9.800;2022-10-26T03:36:24;12.90;;;10.67;;
12228;SDS011;6177;52.402;9.800;2022-10-26T03:39:09;14.07;;;10.50;;
12228;SDS011;6177;52.402;9.800;2022-10-26T03:41:53;13.03;;;10.17;;
12228;SDS011;6177;52.402;9.800;2022-10-26T03:44:39;11.97;;;9.53;;
12228;SDS011;6177;52.402;9.800;2022-10-26T03:47:25;12.73;;;9.13;;
12228;SDS011;6177;52.402;9.800;2022-10-26T03:50:10;13.43;;;9.93;;
12228;SDS011;6177;52.402;9.800;2022-10-26T03:52:58;12.63;;;9.90;;
12228;SDS011;6177;52.402;9.800;2022-10-26T03:55:43;12.23;;;10.17;;
12228;SDS011;6177;52.402;9.800;2022-10-26T03:58:28;13.73;;;10.87;;
12228;SDS011;6177;52.402;9.800;2022-10-26T04:01:13;14.07;;;10.13;;
12228;SDS011;6177;52.402;9.800;2022-10-26T04:03:58;17.03;;;10.77;;
12228;SDS011;6177;52.402;9.800;2022-10-26T04:06:42;14.70;;;10.37;;
12228;SDS011;6177;52.402;9.800;2022-10-26T04:09:26;15.77;;;10.43;;
12228;SDS011;6177;52.402;9.800;2022-10-26T04:12:11;12.67;;;9.77;;
12228;SDS011;6177;52.402;9.800;2022-10-26T04:14:56;14.17;;;9.73;;
12228;SDS011;6177;52.402;9.800;2022-10-26T04:17:41;14.30;;;11.57;;
12228;SDS011;6177;52.402;9.800;2022-10-26T04:20:26;15.03;;;11.93;;
12228;SDS011;6177;52.402;9.800;2022-10-26T04:23:13;16.40;;;10.70;;
12228;SDS011;6177;52.402;9.800;2022-10-26T04:26:00;16.90;;;10.60;;
12228;SDS011;6177;52.402;9.800;2022-10-26T04:28:44;15.33;;;10.27;;
12228;SDS011;6177;52.402;9.800;2022-10-26T04:31:29;14.60;;;10.53;;
12228;SDS011;6177;52.402;9.800;2022-10-26T04:34:14;20.33;;;11.90;;
12228;SDS011;6177;52.402;9.800;2022-10-26T04:36:59;16.97;;;10.93;;
12228;SDS011;6177;52.402;9.800;2022-10-26T04:39:44;15.83;;;11.10;;
12228;SDS011;6177;52.402;9.800;2022-10-26T04:42:28;15.50;;;11.43;;
12228;SDS011;6177;52.402;9.800;2022-10-26T04:45:16;17.87;;;10.50;;
12228;SDS011;6177;52.402;9.800;2022-10-26T04:48:02;14.43;;;10.10;;
12228;SDS011;6177;52.402;9.800;2022-10-26T04:50:49;15.40;;;10.97;;
12228;SDS011;6177;52.402;9.800;2022-10-26T04:53:34;15.83;;;10.53;;
12228;SDS011;6177;52.402;9.800;2022-10-26T04:56:18;16.23;;;10.67;;
12228;SDS011;6177;52.402;9.800;2022-10-26T04:59:03;14.87;;;10.30;;
12228;SDS011;6177;52.402;9.800;2022-10-26T05:01:48;18.83;;;10.23;;
12228;SDS011;6177;52.402;9.800;2022-10-26T05:04:33;20.53;;;12.40;;
12228;SDS011;6177;52.402;9.800;2022-10-26T05:07:17;14.77;;;10.67;;
12228;SDS011;6177;52.402;9.800;2022-10-26T05:10:02;17.40;;;11.57;;
12228;SDS011;6177;52.402;9.800;2022-10-26T05:12:51;16.33;;;11.30;;
12228;SDS011;6177;52.402;9.800;2022-10-26T05:15:37;21.40;;;12.40;;
12228;SDS011;6177;52.402;9.800;2022-10-26T05:18:23;16.43;;;11.40;;
12228;SDS011;6177;52.402;9.800;2022-10-26T05:21:09;17.50;;;12.03;;
12228;SDS011;6177;52.402;9.800;2022-10-26T05:23:56;18.70;;;12.60;;
12228;SDS011;6177;52.402;9.800;2022-10-26T05:26:40;16.77;;;11.43;;
12228;SDS011;6177;52.402;9.800;2022-10-26T05:29:27;22.50;;;12.17;;
12228;SDS011;6177;52.402;9.800;2022-10-26T05:32:12;20.97;;;12.03;;
12228;SDS011;6177;52.402;9.800;2022-10-26T05:34:57;13.20;;;10.57;;
12228;SDS011;6177;52.402;9.800;2022-10-26T05:37:41;16.53;;;11.30;;
12228;SDS011;6177;52.402;9.800;2022-10-26T05:40:26;18.13;;;12.40;;
12228;SDS011;6177;52.402;9.800;2022-10-26T05:43:10;22.87;;;12.60;;
12228;SDS011;6177;52.402;9.800;2022-10-26T05:45:55;17.83;;;12.30;;
12228;SDS011;6177;52.402;9.800;2022-10-26T05:48:39;18.43;;;12.70;;
12228;SDS011;6177;52.402;9.800;2022-10-26T05:51:25;25.53;;;13.57;;
12228;SDS011;6177;52.402;9.800;2022-10-26T05:54:10;21.50;;;13.60;;
12228;SDS011;6177;52.402;9.800;2022-10-26T05:56:54;21.47;;;13.83;;
12228;SDS011;6177;52.402;9.800;2022-10-26T05:59:40;18.93;;;12.93;;
12228;SDS011;6177;52.402;9.800;2022-10-26T06:02:32;25.00;;;13.97;;
12228;SDS011;6177;52.402;9.800;2022-10-26T06:05:22;17.33;;;12.33;;
12228;SDS011;6177;52.402;9.800;2022-10-26T06:08:10;23.10;;;14.00;;
12228;SDS011;6177;52.402;9.800;2022-10-26T06:10:55;21.80;;;13.73;;
12228;SDS011;6177;52.402;9.800;2022-10-26T06:13:44;20.73;;;13.33;;
12228;SDS011;6177;52.402;9.800;2022-10-26T06:28:22;18.37;;;12.90;;
12228;SDS011;6177;52.402;9.800;2022-10-26T06:31:20;28.00;;;14.67;;
12228;SDS011;6177;52.402;9.800;2022-10-26T06:34:05;16.00;;;11.70;;
12228;SDS011;6177;52.402;9.800;2022-10-26T06:36:52;22.37;;;13.03;;
12228;SDS011;6177;52.402;9.800;2022-10-26T06:39:38;24.53;;;13.37;;
12228;SDS011;6177;52.402;9.800;2022-10-26T06:42:28;20.37;;;12.67;;
12228;SDS011;6177;52.402;9.800;2022-10-26T06:45:15;19.40;;;12.20;;
12228;SDS011;6177;52.402;9.800;2022-10-26T06:48:08;20.73;;;13.37;;
12228;SDS011;6177;52.402;9.800;2022-10-26T06:50:56;20.63;;;12.97;;
12228;SDS011;6177;52.402;9.800;2022-10-26T06:53:42;15.43;;;11.93;;
12228;SDS011;6177;52.402;9.800;2022-10-26T06:56:28;24.27;;;12.97;;
12228;SDS011;6177;52.402;9.800;2022-10-26T06:59:57;20.43;;;13.00;;
12228;SDS011;6177;52.402;9.800;2022-10-26T07:02:25;19.13;;;13.00;;
12228;SDS011;6177;52.402;9.800;2022-10-26T07:05:11;21.27;;;12.27;;
12228;SDS011;6177;52.402;9.800;2022-10-26T07:07:58;19.73;;;12.40;;
12228;SDS011;6177;52.402;9.800;2022-10-26T07:10:43;16.97;;;12.27;;
12228;SDS011;6177;52.402;9.800;2022-10-26T07:13:29;17.47;;;11.43;;
12228;SDS011;6177;52.402;9.800;2022-10-26T07:16:14;18.33;;;11.43;;
12228;SDS011;6177;52.402;9.800;2022-10-26T07:18:59;21.07;;;13.87;;
12228;SDS011;6177;52.402;9.800;2022-10-26T07:21:44;18.93;;;14.00;;
12228;SDS011;6177;52.402;9.800;2022-10-26T07:24:28;21.33;;;13.80;;
12228;SDS011;6177;52.402;9.800;2022-10-26T07:27:13;22.93;;;11.53;;
12228;SDS011;6177;52.402;9.800;2022-10-26T07:29:58;21.50;;;12.80;;
12228;SDS011;6177;52.402;9.800;2022-10-26T07:32:43;16.57;;;12.17;;
12228;SDS011;6177;52.402;9.800;2022-10-26T07:35:28;10.40;;;9.30;;
12228;SDS011;6177;52.402;9.800;2022-10-26T07:38:12;15.93;;;9.63;;
12228;SDS011;6177;52.402;9.800;2022-10-26T07:40:57;15.20;;;10.07;;
12228;SDS011;6177;52.402;9.800;2022-10-26T07:43:42;10.50;;;8.97;;
12228;SDS011;6177;52.402;9.800;2022-10-26T07:46:28;9.63;;;8.67;;
12228;SDS011;6177;52.402;9.800;2022-10-26T07:49:12;8.97;;;8.07;;
12228;SDS011;6177;52.402;9.800;2022-10-26T07:51:57;11.17;;;7.77;;
12228;SDS011;6177;52.402;9.800;2022-10-26T07:54:42;7.50;;;6.83;;
12228;SDS011;6177;52.402;9.800;2022-10-26T07:57:27;10.00;;;7.87;;
12228;SDS011;6177;52.402;9.800;2022-10-26T08:00:12;7.50;;;6.80;;
12228;SDS011;6177;52.402;9.800;2022-10-26T08:02:57;7.80;;;6.53;;
12228;SDS011;6177;52.402;9.800;2022-10-26T08:05:41;8.90;;;6.37;;
12228;SDS011;6177;52.402;9.800;2022-10-26T08:08:26;7.30;;;6.50;;
12228;SDS011;6177;52.402;9.800;2022-10-26T08:11:11;6.93;;;5.53;;
12228;SDS011;6177;52.402;9.800;2022-10-26T08:13:55;7.33;;;5.00;;
12228;SDS011;6177;52.402;9.800;2022-10-26T08:16:40;7.23;;;5.40;;
12228;SDS011;6177;52.402;9.800;2022-10-26T08:19:24;6.70;;;4.70;;
12228;SDS011;6177;52.402;9.800;2022-10-26T08:22:09;8.43;;;5.20;;
12228;SDS011;6177;52.402;9.800;2022-10-26T08:24:54;6.83;;;4.60;;
12228;SDS011;6177;52.402;9.800;2022-10-26T08:27:38;4.97;;;4.40;;
12228;SDS011;6177;52.402;9.800;2022-10-26T08:30:23;6.83;;;4.40;;
12228;SDS011;6177;52.402;9.800;2022-10-26T08:33:08;6.37;;;4.30;;
12228;SDS011;6177;52.402;9.800;2022-10-26T08:35:54;5.07;;;4.27;;
12228;SDS011;6177;52.402;9.800;2022-10-26T08:38:45;4.40;;;3.87;;
12228;SDS011;6177;52.402;9.800;2022-10-26T08:44:22;3.93;;;3.33;;
12228;SDS011;6177;52.402;9.800;2022-10-26T08:50:05;3.77;;;3.40;;
12228;SDS011;6177;52.402;9.800;2022-10-26T08:56:07;3.93;;;2.70;;
12228;SDS011;6177;52.402;9.800;2022-10-26T08:59:01;2.73;;;2.63;;
12228;SDS011;6177;52.402;9.800;2022-10-26T09:01:49;2.93;;;2.70;;
12228;SDS011;6177;52.402;9.800;2022-10-26T09:04:34;3.73;;;3.03;;
12228;SDS011;6177;52.402;9.800;2022-10-26T09:07:24;5.07;;;3.10;;
12228;SDS011;6177;52.402;9.800;2022-10-26T09:13:19;5.03;;;2.80;;
12228;SDS011;6177;52.402;9.800;2022-10-26T09:16:25;2.93;;;2.60;;
12228;SDS011;6177;52.402;9.800;2022-10-26T09:25:38;2.73;;;2.53;;
12228;SDS011;6177;52.402;9.800;2022-10-26T09:28:23;4.00;;;2.43;;
12228;SDS011;6177;52.402;9.800;2022-10-26T09:31:12;4.23;;;2.50;;
12228;SDS011;6177;52.402;9.800;2022-10-26T09:33:59;4.37;;;2.30;;
12228;SDS011;6177;52.402;9.800;2022-10-26T09:36:50;3.97;;;2.23;;
12228;SDS011;6177;52.402;9.800;2022-10-26T09:39:42;2.73;;;2.50;;
12228;SDS011;6177;52.402;9.800;2022-10-26T09:45:28;2.73;;;2.37;;
12228;SDS011;6177;52.402;9.800;2022-10-26T09:51:05;2.87;;;2.07;;
12228;SDS011;6177;52.402;9.800;2022-10-26T09:53:50;6.90;;;1.87;;
12228;SDS011;6177;52.402;9.800;2022-10-26T09:56:35;3.63;;;1.83;;
12228;SDS011;6177;52.402;9.800;2022-10-26T09:59:21;3.70;;;2.00;;
12228;SDS011;6177;52.402;9.800;2022-10-26T10:11:06;1.77;;;1.67;;
12228;SDS011;6177;52.402;9.800;2022-10-26T10:13:54;3.27;;;2.10;;
12228;SDS011;6177;52.402;9.800;2022-10-26T10:19:40;5.03;;;2.13;;
12228;SDS011;6177;52.402;9.800;2022-10-26T10:22:25;2.53;;;1.80;;
12228;SDS011;6177;52.402;9.800;2022-10-26T10:25:20;3.30;;;2.00;;
12228;SDS011;6177;52.402;9.800;2022-10-26T10:28:19;4.40;;;2.30;;
12228;SDS011;6177;52.402;9.800;2022-10-26T10:31:48;3.73;;;2.20;;
12228;SDS011;6177;52.402;9.800;2022-10-26T10:34:15;2.57;;;1.97;;
12228;SDS011;6177;52.402;9.800;2022-10-26T10:37:00;4.30;;;2.10;;
12228;SDS011;6177;52.402;9.800;2022-10-26T10:39:45;2.30;;;1.97;;
12228;SDS011;6177;52.402;9.800;2022-10-26T10:42:31;3.23;;;1.80;;
12228;SDS011;6177;52.402;9.800;2022-10-26T10:45:22;1.90;;;1.80;;
12228;SDS011;6177;52.402;9.800;2022-10-26T10:48:14;2.50;;;1.77;;
12228;SDS011;6177;52.402;9.800;2022-10-26T10:51:04;4.87;;;2.40;;
12228;SDS011;6177;52.402;9.800;2022-10-26T10:53:55;7.50;;;1.70;;
12228;SDS011;6177;52.402;9.800;2022-10-26T10:56:47;5.23;;;1.60;;
12228;SDS011;6177;52.402;9.800;2022-10-26T11:06:16;1.97;;;1.47;;
12228;SDS011;6177;52.402;9.800;2022-10-26T11:09:08;3.23;;;1.70;;
12228;SDS011;6177;52.402;9.800;2022-10-26T11:12:08;3.60;;;1.80;;
12228;SDS011;6177;52.402;9.800;2022-10-26T11:15:01;5.33;;;1.80;;
12228;SDS011;6177;52.402;9.800;2022-10-26T11:20:41;3.40;;;1.53;;
12228;SDS011;6177;52.402;9.800;2022-10-26T11:26:42;2.63;;;1.90;;
12228;SDS011;6177;52.402;9.800;2022-10-26T11:32:23;2.47;;;1.43;;
12228;SDS011;6177;52.402;9.800;2022-10-26T11:38:21;2.28;;;1.38;;
12228;SDS011;6177;52.402;9.800;2022-10-26T11:44:04;2.77;;;1.57;;
12228;SDS011;6177;52.402;9.800;2022-10-26T11:46:55;4.60;;;1.70;;
12228;SDS011;6177;52.402;9.800;2022-10-26T11:49:52;2.15;;;1.30;;
12228;SDS011;6177;52.402;9.800;2022-10-26T11:53:08;1.95;;;1.30;;
12228;SDS011;6177;52.402;9.800;2022-10-26T11:55:59;1.42;;;1.40;;
12228;SDS011;6177;52.402;9.800;2022-10-26T11:58:46;1.77;;;1.60;;
12228;SDS011;6177;52.402;9.800;2022-10-26T12:01:32;2.03;;;0.90;;
12228;SDS011;6177;52.402;9.800;2022-10-26T12:04:21;1.40;;;1.30;;
12228;SDS011;6177;52.402;9.800;2022-10-26T12:07:20;3.03;;;1.50;;
12228;SDS011;6177;52.402;9.800;2022-10-26T12:10:28;0.85;;;0.75;;
12228;SDS011;6177;52.402;9.800;2022-10-26T12:13:39;3.15;;;1.30;;
12228;SDS011;6177;52.402;9.800;2022-10-26T12:16:53;1.30;;;0.93;;
12228;SDS011;6177;52.402;9.800;2022-10-26T12:19:59;1.60;;;1.13;;
12228;SDS011;6177;52.402;9.800;2022-10-26T12:22:47;1.73;;;0.98;;
12228;SDS011;6177;52.402;9.800;2022-10-26T12:25:32;3.60;;;1.08;;
12228;SDS011;6177;52.402;9.800;2022-10-26T12:34:23;1.33;;;0.90;;
12228;SDS011;6177;52.402;9.800;2022-10-26T12:37:21;1.00;;;0.80;;
12228;SDS011;6177;52.402;9.800;2022-10-26T12:48:57;1.75;;;1.10;;
12228;SDS011;6177;52.402;9.800;2022-10-26T12:51:42;2.35;;;1.10;;
12228;SDS011;6177;52.402;9.800;2022-10-26T12:54:39;1.30;;;0.70;;
12228;SDS011;6177;52.402;9.800;2022-10-26T12:57:38;2.38;;;2.20;;
12228;SDS011;6177;52.402;9.800;2022-10-26T13:00:27;1.40;;;0.90;;
12228;SDS011;6177;52.402;9.800;2022-10-26T13:09:20;0.95;;;0.90;;
12228;SDS011;6177;52.402;9.800;2022-10-26T13:12:07;1.65;;;0.93;;
12228;SDS011;6177;52.402;9.800;2022-10-26T13:14:56;2.88;;;1.55;;
12228;SDS011;6177;52.402;9.800;2022-10-26T13:17:55;2.80;;;0.93;;
12228;SDS011;6177;52.402;9.800;2022-10-26T13:23:57;3.67;;;1.35;;
12228;SDS011;6177;52.402;9.800;2022-10-26T13:32:48;1.55;;;0.75;;
12228;SDS011;6177;52.402;9.800;2022-10-26T13:35:38;1.15;;;0.80;;
12228;SDS011;6177;52.402;9.800;2022-10-26T13:38:27;3.13;;;1.02;;
12228;SDS011;6177;52.402;9.800;2022-10-26T13:41:18;1.25;;;0.98;;
12228;SDS011;6177;52.402;9.800;2022-10-26T13:44:21;0.95;;;0.77;;
12228;SDS011;6177;52.402;9.800;2022-10-26T13:47:57;3.17;;;1.20;;
12228;SDS011;6177;52.402;9.800;2022-10-26T13:50:15;1.02;;;0.88;;
12228;SDS011;6177;52.402;9.800;2022-10-26T13:53:07;1.05;;;1.00;;
12228;SDS011;6177;52.402;9.800;2022-10-26T13:56:08;1.65;;;0.90;;
12228;SDS011;6177;52.402;9.800;2022-10-26T14:01:48;2.63;;;1.10;;
12228;SDS011;6177;52.402;9.800;2022-10-26T14:05:09;0.95;;;0.90;;
12228;SDS011;6177;52.402;9.800;2022-10-26T14:07:56;4.88;;;1.00;;
12228;SDS011;6177;52.402;9.800;2022-10-26T14:10:44;3.05;;;1.27;;
12228;SDS011;6177;52.402;9.800;2022-10-26T14:13:32;1.25;;;1.10;;
12228;SDS011;6177;52.402;9.800;2022-10-26T14:16:18;3.10;;;1.10;;
12228;SDS011;6177;52.402;9.800;2022-10-26T14:19:03;2.25;;;1.00;;
12228;SDS011;6177;52.402;9.800;2022-10-26T14:21:48;2.72;;;1.05;;
12228;SDS011;6177;52.402;9.800;2022-10-26T14:24:35;1.75;;;1.00;;
12228;SDS011;6177;52.402;9.800;2022-10-26T14:27:25;4.22;;;1.55;;
12228;SDS011;6177;52.402;9.800;2022-10-26T14:30:24;5.22;;;1.30;;
12228;SDS011;6177;52.402;9.800;2022-10-26T14:33:18;2.80;;;1.33;;
12228;SDS011;6177;52.402;9.800;2022-10-26T14:36:07;1.85;;;1.23;;
12228;SDS011;6177;52.402;9.800;2022-10-26T14:38:53;1.52;;;1.00;;
12228;SDS011;6177;52.402;9.800;2022-10-26T14:41:41;5.38;;;1.17;;
12228;SDS011;6177;52.402;9.800;2022-10-26T14:44:26;1.95;;;1.60;;
12228;SDS011;6177;52.402;9.800;2022-10-26T14:47:19;2.40;;;1.00;;
12228;SDS011;6177;52.402;9.800;2022-10-26T14:50:18;3.28;;;1.30;;
12228;SDS011;6177;52.402;9.800;2022-10-26T14:53:10;1.77;;;1.40;;
12228;SDS011;6177;52.402;9.800;2022-10-26T14:55:57;1.58;;;1.23;;
12228;SDS011;6177;52.402;9.800;2022-10-26T14:58:42;3.58;;;1.17;;
12228;SDS011;6177;52.402;9.800;2022-10-26T15:01:28;3.45;;;1.33;;
12228;SDS011;6177;52.402;9.800;2022-10-26T15:04:25;2.35;;;1.08;;
12228;SDS011;6177;52.402;9.800;2022-10-26T15:09:54;1.15;;;1.02;;
12228;SDS011;6177;52.402;9.800;2022-10-26T15:12:38;2.35;;;1.08;;
12228;SDS011;6177;52.402;9.800;2022-10-26T15:15:23;1.48;;;1.30;;
12228;SDS011;6177;52.402;9.800;2022-10-26T15:24:12;2.70;;;1.45;;
12228;SDS011;6177;52.402;9.800;2022-10-26T15:27:21;1.48;;;1.38;;
12228;SDS011;6177;52.402;9.800;2022-10-26T15:30:15;1.73;;;1.20;;
12228;SDS011;6177;52.402;9.800;2022-10-26T15:33:17;1.85;;;1.10;;
12228;SDS011;6177;52.402;9.800;2022-10-26T15:36:26;4.07;;;1.20;;
12228;SDS011;6177;52.402;9.800;2022-10-26T15:39:10;2.15;;;1.13;;
12228;SDS011;6177;52.402;9.800;2022-10-26T15:41:54;3.33;;;1.30;;
12228;SDS011;6177;52.402;9.800;2022-10-26T15:44:39;1.48;;;1.38;;
12228;SDS011;6177;52.402;9.800;2022-10-26T15:47:27;3.17;;;1.60;;
12228;SDS011;6177;52.402;9.800;2022-10-26T15:50:17;1.70;;;1.60;;
12228;SDS011;6177;52.402;9.800;2022-10-26T15:53:04;3.67;;;1.52;;
12228;SDS011;6177;52.402;9.800;2022-10-26T15:55:57;1.85;;;1.38;;
12228;SDS011;6177;52.402;9.800;2022-10-26T15:58:42;1.67;;;1.48;;
12228;SDS011;6177;52.402;9.800;2022-10-26T16:01:27;1.77;;;1.67;;
12228;SDS011;6177;52.402;9.800;2022-10-26T16:04:13;4.03;;;1.90;;
12228;SDS011;6177;52.402;9.800;2022-10-26T16:06:57;2.38;;;1.83;;
12228;SDS011;6177;52.402;9.800;2022-10-26T16:09:45;2.90;;;1.88;;
12228;SDS011;6177;52.402;9.800;2022-10-26T16:12:29;2.22;;;1.52;;
12228;SDS011;6177;52.402;9.800;2022-10-26T16:15:23;6.85;;;1.80;;
12228;SDS011;6177;52.402;9.800;2022-10-26T16:18:08;2.00;;;1.77;;
12228;SDS011;6177;52.402;9.800;2022-10-26T16:20:52;2.15;;;1.83;;
12228;SDS011;6177;52.402;9.800;2022-10-26T16:23:37;3.30;;;2.13;;
12228;SDS011;6177;52.402;9.800;2022-10-26T16:26:23;2.42;;;1.98;;
12228;SDS011;6177;52.402;9.800;2022-10-26T16:29:07;3.33;;;1.83;;
12228;SDS011;6177;52.402;9.800;2022-10-26T16:31:52;9.02;;;2.42;;
12228;SDS011;6177;52.402;9.800;2022-10-26T16:34:37;4.43;;;1.98;;
12228;SDS011;6177;52.402;9.800;2022-10-26T16:37:21;4.13;;;2.00;;
12228;SDS011;6177;52.402;9.800;2022-10-26T16:40:06;2.50;;;2.13;;
12228;SDS011;6177;52.402;9.800;2022-10-26T16:42:51;3.22;;;2.08;;
12228;SDS011;6177;52.402;9.800;2022-10-26T16:45:38;3.95;;;2.50;;
12228;SDS011;6177;52.402;9.800;2022-10-26T16:48:24;3.53;;;2.63;;
12228;SDS011;6177;52.402;9.800;2022-10-26T16:53:55;3.83;;;2.03;;
12228;SDS011;6177;52.402;9.800;2022-10-26T16:56:40;4.03;;;2.30;;
12228;SDS011;6177;52.402;9.800;2022-10-26T16:59:25;3.37;;;2.30;;
12228;SDS011;6177;52.402;9.800;2022-10-26T17:02:12;2.67;;;2.08;;
12228;SDS011;6177;52.402;9.800;2022-10-26T17:04:57;2.55;;;2.30;;
12228;SDS011;6177;52.402;9.800;2022-10-26T17:07:42;2.70;;;2.00;;
12228;SDS011;6177;52.402;9.800;2022-10-26T17:10:26;3.30;;;2.20;;
12228;SDS011;6177;52.402;9.800;2022-10-26T17:13:11;2.35;;;2.17;;
12228;SDS011;6177;52.402;9.800;2022-10-26T17:15:59;5.30;;;2.10;;
12228;SDS011;6177;52.402;9.800;2022-10-26T17:18:49;4.10;;;2.10;;
12228;SDS011;6177;52.402;9.800;2022-10-26T17:21:34;2.53;;;2.33;;
12228;SDS011;6177;52.402;9.800;2022-10-26T17:24:19;5.90;;;2.40;;
12228;SDS011;6177;52.402;9.800;2022-10-26T17:27:03;2.70;;;2.37;;
12228;SDS011;6177;52.402;9.800;2022-10-26T17:29:48;3.00;;;2.70;;
12228;SDS011;6177;52.402;9.800;2022-10-26T17:32:32;6.33;;;2.93;;
12228;SDS011;6177;52.402;9.800;2022-10-26T17:35:17;3.00;;;2.23;;
12228;SDS011;6177;52.402;9.800;2022-10-26T17:38:02;2.70;;;2.50;;
12228;SDS011;6177;52.402;9.800;2022-10-26T17:40:47;4.00;;;2.63;;
12228;SDS011;6177;52.402;9.800;2022-10-26T17:43:32;5.73;;;2.43;;
12228;SDS011;6177;52.402;9.800;2022-10-26T17:46:19;3.70;;;2.57;;
12228;SDS011;6177;52.402;9.800;2022-10-26T17:49:07;6.53;;;3.13;;
12228;SDS011;6177;52.402;9.800;2022-10-26T17:51:52;6.37;;;2.63;;
12228;SDS011;6177;52.402;9.800;2022-10-26T17:54:37;5.73;;;2.53;;
12228;SDS011;6177;52.402;9.800;2022-10-26T17:57:21;3.40;;;3.10;;
12228;SDS011;6177;52.402;9.800;2022-10-26T18:00:06;7.27;;;3.83;;
12228;SDS011;6177;52.402;9.800;2022-10-26T18:02:57;4.70;;;3.37;;
12228;SDS011;6177;52.402;9.800;2022-10-26T18:05:47;7.47;;;3.43;;
12228;SDS011;6177;52.402;9.800;2022-10-26T18:08:33;3.90;;;3.20;;
12228;SDS011;6177;52.402;9.800;2022-10-26T18:11:20;8.47;;;3.47;;
12228;SDS011;6177;52.402;9.800;2022-10-26T18:14:06;3.97;;;3.37;;
12228;SDS011;6177;52.402;9.800;2022-10-26T18:16:50;5.03;;;3.70;;
12228;SDS011;6177;52.402;9.800;2022-10-26T18:19:35;7.77;;;3.90;;
12228;SDS011;6177;52.402;9.800;2022-10-26T18:22:20;7.17;;;4.20;;
12228;SDS011;6177;52.402;9.800;2022-10-26T18:25:04;3.87;;;3.43;;
12228;SDS011;6177;52.402;9.800;2022-10-26T18:27:49;4.27;;;3.93;;
12228;SDS011;6177;52.402;9.800;2022-10-26T18:30:33;7.33;;;4.40;;
12228;SDS011;6177;52.402;9.800;2022-10-26T18:33:18;5.77;;;3.87;;
12228;SDS011;6177;52.402;9.800;2022-10-26T18:36:04;4.87;;;4.30;;
12228;SDS011;6177;52.402;9.800;2022-10-26T18:38:50;5.17;;;4.03;;
12228;SDS011;6177;52.402;9.800;2022-10-26T18:41:35;5.30;;;4.40;;
12228;SDS011;6177;52.402;9.800;2022-10-26T18:44:20;5.70;;;3.70;;
12228;SDS011;6177;52.402;9.800;2022-10-26T18:47:05;7.70;;;4.00;;
12228;SDS011;6177;52.402;9.800;2022-10-26T18:49:50;4.93;;;3.70;;
12228;SDS011;6177;52.402;9.800;2022-10-26T18:52:34;4.30;;;3.90;;
12228;SDS011;6177;52.402;9.800;2022-10-26T18:55:19;7.97;;;3.80;;
12228;SDS011;6177;52.402;9.800;2022-10-26T18:58:03;4.13;;;3.73;;
12228;SDS011;6177;52.402;9.800;2022-10-26T19:00:48;4.70;;;3.77;;
12228;SDS011;6177;52.402;9.800;2022-10-26T19:03:35;4.90;;;3.83;;
12228;SDS011;6177;52.402;9.800;2022-10-26T19:06:20;4.93;;;4.40;;
12228;SDS011;6177;52.402;9.800;2022-10-26T19:09:09;5.83;;;4.07;;
12228;SDS011;6177;52.402;9.800;2022-10-26T19:11:53;6.20;;;3.90;;
12228;SDS011;6177;52.402;9.800;2022-10-26T19:14:38;5.00;;;4.10;;
12228;SDS011;6177;52.402;9.800;2022-10-26T19:17:23;4.90;;;3.97;;
12228;SDS011;6177;52.402;9.800;2022-10-26T19:20:08;5.67;;;4.10;;
12228;SDS011;6177;52.402;9.800;2022-10-26T19:22:55;6.37;;;4.80;;
12228;SDS011;6177;52.402;9.800;2022-10-26T19:25:40;4.27;;;3.97;;